Mantee, Mississippi
Current Conditions -  °F | °C
As of 9:15 PM on Saturday 22 Nov 2014 (Local Time) from KSTF Reporting Station
Broken Clouds Broken Clouds  
Wind Chill: 61°   Ceiling: 3000
Heat Index: 61°   Visibility: NA
Dew Point: 52°   Wind: 7mph
Humidity: 72%   Direction: 130°SE
Pressure: 30.04"   Gusts: NA
Location:  33.73°N, 89.06°W
Report Text: KSTF 230315Z AUTO 13006KT BKN030 BKN040 BKN048 16/11 A3004 RMK AO2 PWINO
Loading
Personal Weather Stations






























Interactive Weather Map New forecast layout! Learn more

10-Day Weather Forecast

Advertisements
Track Severe Weather on mobile